createdAt,value
2023-02-19T00:01:11.264Z,19.30
2023-02-19T00:06:06.547Z,15.98
2023-02-19T00:08:34.773Z,16.08
2023-02-19T00:11:05.859Z,17.05
2023-02-19T00:13:36.623Z,19.20
2023-02-19T00:16:07.533Z,18.23
2023-02-19T00:18:35.186Z,17.95
2023-02-19T00:21:02.505Z,20.02
2023-02-19T00:23:29.803Z,22.02
2023-02-19T00:26:03.191Z,17.40
2023-02-19T00:28:36.302Z,25.00
2023-02-19T00:31:10.889Z,16.13
2023-02-19T00:33:38.117Z,15.05
2023-02-19T00:36:06.091Z,16.48
2023-02-19T00:38:33.553Z,18.23
2023-02-19T00:41:00.760Z,14.90
2023-02-19T00:43:28.116Z,16.60
2023-02-19T00:45:55.252Z,20.25
2023-02-19T00:48:22.403Z,19.23
2023-02-19T00:50:49.553Z,17.88
2023-02-19T00:53:16.751Z,16.63
2023-02-19T00:55:43.925Z,18.75
2023-02-19T00:58:11.359Z,17.40
2023-02-19T01:00:38.543Z,18.60
2023-02-19T01:03:05.706Z,20.35
2023-02-19T01:05:32.807Z,19.60
2023-02-19T01:07:59.924Z,15.90
2023-02-19T01:10:27.212Z,18.52
2023-02-19T01:12:54.326Z,16.92
2023-02-19T01:15:21.458Z,18.50
2023-02-19T01:17:48.546Z,19.80
2023-02-19T01:20:16.751Z,17.92
2023-02-19T01:22:43.840Z,18.10
2023-02-19T01:25:10.977Z,19.23
2023-02-19T01:27:38.042Z,17.08
2023-02-19T01:30:05.361Z,18.90
2023-02-19T01:32:32.531Z,18.33
2023-02-19T01:34:59.757Z,18.23
2023-02-19T01:37:26.830Z,20.55
2023-02-19T01:39:54.041Z,17.83
2023-02-19T01:42:21.170Z,17.95
2023-02-19T01:44:48.385Z,20.08
2023-02-19T01:47:16.384Z,21.33
2023-02-19T01:49:48.771Z,19.52
2023-02-19T01:52:19.350Z,18.83
2023-02-19T01:54:46.882Z,19.15
2023-02-19T01:57:18.931Z,18.70
2023-02-19T01:59:46.848Z,20.60
2023-02-19T02:02:14.085Z,20.00
2023-02-19T02:04:41.235Z,20.55
2023-02-19T02:07:28.850Z,19.27
2023-02-19T02:10:14.828Z,18.52
2023-02-19T02:12:42.064Z,19.77
2023-02-19T02:15:09.613Z,20.77
2023-02-19T02:17:42.549Z,17.13
2023-02-19T02:20:09.647Z,22.30
2023-02-19T02:22:51.428Z,20.33
2023-02-19T02:25:33.946Z,23.52
2023-02-19T02:28:22.062Z,21.77
2023-02-19T02:30:59.302Z,22.38
2023-02-19T02:33:34.456Z,21.20
2023-02-19T02:36:07.399Z,22.05
2023-02-19T02:38:36.735Z,20.73
2023-02-19T02:41:04.415Z,20.90
2023-02-19T02:43:31.859Z,21.83
2023-02-19T02:45:59.217Z,21.20
2023-02-19T02:48:35.501Z,20.02
2023-02-19T02:51:05.690Z,19.77
2023-02-19T02:54:03.517Z,17.75
2023-02-19T02:56:31.790Z,19.40
2023-02-19T02:59:01.105Z,18.20
2023-02-19T03:01:52.318Z,19.38
2023-02-19T03:04:33.135Z,19.95
2023-02-19T03:07:02.913Z,20.50
2023-02-19T03:09:40.546Z,21.57
2023-02-19T03:12:31.034Z,22.45
2023-02-19T03:15:19.931Z,21.17
2023-02-19T03:18:08.434Z,21.13
2023-02-19T03:20:38.312Z,24.42
2023-02-19T03:23:07.178Z,21.67
2023-02-19T03:25:53.940Z,22.73
2023-02-19T03:28:42.290Z,24.13
2023-02-19T03:31:11.365Z,23.98
2023-02-19T03:33:40.946Z,22.65
2023-02-19T03:36:08.993Z,24.48
2023-02-19T03:38:48.554Z,25.77
2023-02-19T03:41:31.490Z,23.67
2023-02-19T03:44:08.373Z,22.45
2023-02-19T03:46:58.341Z,24.88
2023-02-19T03:49:29.928Z,23.60
2023-02-19T03:52:02.874Z,25.23
2023-02-19T03:54:39.013Z,24.77
2023-02-19T03:57:29.137Z,25.38
2023-02-19T04:00:17.941Z,27.30
2023-02-19T04:02:45.083Z,25.52
2023-02-19T04:05:15.249Z,26.10
2023-02-19T04:07:45.405Z,23.75
2023-02-19T04:10:13.956Z,24.05
2023-02-19T04:12:43.165Z,25.58
2023-02-19T04:15:15.146Z,23.40
2023-02-19T04:17:48.454Z,24.00
2023-02-19T04:20:16.457Z,23.52
2023-02-19T04:22:43.980Z,25.80
2023-02-19T04:25:11.170Z,24.63
2023-02-19T04:27:39.876Z,21.70
2023-02-19T04:30:08.076Z,20.77
2023-02-19T04:32:37.578Z,27.30
2023-02-19T04:35:04.677Z,21.77
2023-02-19T04:37:31.793Z,21.75
2023-02-19T04:39:58.988Z,21.35
2023-02-19T04:42:26.385Z,21.63
2023-02-19T04:44:55.987Z,20.92
2023-02-19T04:47:23.158Z,21.48
2023-02-19T04:49:50.260Z,21.92
2023-02-19T04:52:19.753Z,21.02
2023-02-19T04:54:47.287Z,22.30
2023-02-19T04:57:14.513Z,24.40
2023-02-19T04:59:43.149Z,24.25
2023-02-19T05:02:10.373Z,23.33
2023-02-19T05:04:37.614Z,21.42
2023-02-19T05:07:04.893Z,22.25
2023-02-19T05:09:32.076Z,21.35
2023-02-19T05:12:00.254Z,22.42
2023-02-19T05:14:27.381Z,25.30
2023-02-19T05:16:54.605Z,25.52
2023-02-19T05:19:21.869Z,26.23
2023-02-19T05:21:49.023Z,24.77
2023-02-19T05:24:16.230Z,24.60
2023-02-19T05:26:45.380Z,22.60
2023-02-19T05:29:12.728Z,25.98
2023-02-19T05:31:40.070Z,24.70
2023-02-19T05:34:07.388Z,25.70
2023-02-19T05:36:34.463Z,25.00
2023-02-19T05:39:02.003Z,26.27
2023-02-19T05:41:30.007Z,26.00
2023-02-19T05:43:58.725Z,23.65
2023-02-19T05:46:29.314Z,26.08
2023-02-19T05:48:58.476Z,25.55
2023-02-19T05:51:26.990Z,26.13
2023-02-19T05:53:54.192Z,26.30
2023-02-19T05:56:37.480Z,24.35
2023-02-19T05:59:16.861Z,26.40
2023-02-19T06:01:44.498Z,27.80
2023-02-19T06:04:12.388Z,26.98
2023-02-19T06:06:39.490Z,27.63
2023-02-19T06:09:07.160Z,25.73
2023-02-19T06:11:34.481Z,27.17
2023-02-19T06:14:02.122Z,25.25
2023-02-19T06:16:29.387Z,26.20
2023-02-19T06:18:56.763Z,24.92
2023-02-19T06:21:23.913Z,25.98
2023-02-19T06:23:51.054Z,26.02
2023-02-19T06:26:19.592Z,27.83
2023-02-19T06:28:47.421Z,27.00
2023-02-19T06:31:14.998Z,27.33
2023-02-19T06:33:42.292Z,26.35
2023-02-19T06:36:12.092Z,26.63
2023-02-19T06:38:39.391Z,29.30
2023-02-19T06:41:07.321Z,27.42
2023-02-19T06:43:35.282Z,31.20
2023-02-19T06:46:03.461Z,31.77
2023-02-19T06:48:31.497Z,29.17
2023-02-19T06:50:58.618Z,28.60
2023-02-19T06:53:26.052Z,28.88
2023-02-19T06:56:00.188Z,26.50
2023-02-19T06:58:27.431Z,29.92
2023-02-19T07:00:55.121Z,26.20
2023-02-19T07:03:22.556Z,26.67
2023-02-19T07:05:50.125Z,24.88
2023-02-19T07:08:17.564Z,24.58
2023-02-19T07:10:55.523Z,25.52
2023-02-19T07:13:23.016Z,26.65
2023-02-19T07:15:52.085Z,24.23
2023-02-19T07:18:20.118Z,22.73
2023-02-19T07:20:47.738Z,22.77
2023-02-19T07:23:17.073Z,23.52
2023-02-19T07:25:44.202Z,24.10
2023-02-19T07:28:11.384Z,22.85
2023-02-19T07:30:38.739Z,24.48
2023-02-19T07:33:06.789Z,24.58
2023-02-19T07:35:34.625Z,21.60
2023-02-19T07:38:01.729Z,20.20
2023-02-19T07:40:29.088Z,23.58
2023-02-19T07:42:56.256Z,22.42
2023-02-19T07:45:24.855Z,19.35
2023-02-19T07:47:52.304Z,21.02
2023-02-19T07:50:19.575Z,20.20
2023-02-19T07:52:46.761Z,20.48
2023-02-19T07:55:14.140Z,21.02
2023-02-19T07:57:41.257Z,21.05
2023-02-19T08:00:08.549Z,21.70
2023-02-19T08:02:54.588Z,22.52
2023-02-19T08:05:21.739Z,23.23
2023-02-19T08:07:51.858Z,22.15
2023-02-19T08:10:37.965Z,24.10
2023-02-19T08:13:22.577Z,21.95
2023-02-19T08:15:51.026Z,23.25
2023-02-19T08:18:18.929Z,22.40
2023-02-19T08:20:46.695Z,22.70
2023-02-19T08:23:13.991Z,22.92
2023-02-19T08:25:41.616Z,23.60
2023-02-19T08:28:10.147Z,23.65
2023-02-19T08:30:38.519Z,22.25
2023-02-19T08:33:06.901Z,24.48
2023-02-19T08:35:38.350Z,22.27
2023-02-19T08:38:06.342Z,25.85
2023-02-19T08:40:34.040Z,24.40
2023-02-19T08:43:03.448Z,24.00
2023-02-19T08:45:32.168Z,23.98
2023-02-19T08:47:59.980Z,21.88
2023-02-19T08:50:28.186Z,25.20
2023-02-19T08:52:55.685Z,23.30
2023-02-19T08:55:22.862Z,24.70
2023-02-19T08:57:50.885Z,24.25
2023-02-19T09:00:18.322Z,22.42
2023-02-19T09:02:45.617Z,21.63
2023-02-19T09:05:14.271Z,22.00
2023-02-19T09:07:41.999Z,22.17
2023-02-19T09:10:10.702Z,18.98
2023-02-19T09:12:38.595Z,23.00
2023-02-19T09:15:06.124Z,19.10
2023-02-19T09:17:33.494Z,19.88
2023-02-19T09:20:01.668Z,18.63
2023-02-19T09:22:28.800Z,20.48
2023-02-19T09:24:55.986Z,19.42
2023-02-19T09:27:23.123Z,20.17
2023-02-19T09:29:50.258Z,19.77
2023-02-19T09:32:19.153Z,19.08
2023-02-19T09:34:46.806Z,18.00
2023-02-19T09:37:13.902Z,21.92
2023-02-19T09:39:42.311Z,21.08
2023-02-19T09:42:13.940Z,19.50
2023-02-19T09:44:44.810Z,22.70
2023-02-19T10:00:03.129Z,22.17
2023-02-19T10:06:22.193Z,21.92
2023-02-19T10:12:32.258Z,19.05
2023-02-19T10:15:33.156Z,19.52
2023-02-19T10:18:08.260Z,26.38
2023-02-19T10:20:53.346Z,25.30
2023-02-19T10:26:28.664Z,23.70
2023-02-19T10:29:09.317Z,22.25
2023-02-19T10:31:45.518Z,23.90
2023-02-19T10:34:23.158Z,19.77
2023-02-19T10:36:55.849Z,20.67
2023-02-19T10:39:36.302Z,20.40
2023-02-19T10:42:03.941Z,21.10
2023-02-19T10:44:38.162Z,21.10
2023-02-19T10:47:05.544Z,22.27
2023-02-19T10:49:35.153Z,22.45
2023-02-19T10:52:20.229Z,22.98
2023-02-19T10:54:50.941Z,21.02
2023-02-19T10:57:32.916Z,23.23
2023-02-19T11:00:23.791Z,21.65
2023-02-19T11:05:37.198Z,23.05
2023-02-19T11:08:11.111Z,19.88
2023-02-19T11:10:42.266Z,23.85
2023-02-19T11:13:24.850Z,21.10
2023-02-19T11:15:56.581Z,26.55
2023-02-19T11:18:38.354Z,23.63
2023-02-19T11:21:18.984Z,19.35
2023-02-19T11:26:19.503Z,19.35
2023-02-19T11:29:15.421Z,22.63
2023-02-19T11:31:42.763Z,18.63
2023-02-19T11:34:22.315Z,22.35
2023-02-19T11:37:12.042Z,19.40
2023-02-19T11:39:40.486Z,25.77
2023-02-19T11:42:16.845Z,18.23
2023-02-19T11:45:07.832Z,15.45
2023-02-19T11:47:35.019Z,23.02
2023-02-19T11:50:17.434Z,23.33
2023-02-19T11:53:03.252Z,31.92
2023-02-19T11:55:42.170Z,20.60
2023-02-19T11:58:28.278Z,19.35
2023-02-19T12:01:03.674Z,22.20
2023-02-19T12:03:49.405Z,21.85
2023-02-19T12:06:22.960Z,22.90
2023-02-19T12:08:59.456Z,29.88
2023-02-19T12:11:26.822Z,28.85
2023-02-19T12:14:12.983Z,23.52
2023-02-19T12:16:48.630Z,18.80
2023-02-19T12:19:31.360Z,25.45
2023-02-19T12:21:59.237Z,23.75
2023-02-19T12:24:42.845Z,17.45
2023-02-19T12:27:19.226Z,15.20
2023-02-19T12:29:56.144Z,20.67
2023-02-19T12:32:36.811Z,17.77
2023-02-19T12:37:34.710Z,18.80
2023-02-19T12:40:20.408Z,22.25
2023-02-19T12:42:51.190Z,16.90
2023-02-19T12:45:26.489Z,16.40
2023-02-19T12:48:01.929Z,18.58
2023-02-19T12:50:29.642Z,14.05
2023-02-19T12:53:01.658Z,16.98
2023-02-19T12:55:34.879Z,14.85
2023-02-19T12:58:04.385Z,15.25
2023-02-19T13:00:34.396Z,18.67
2023-02-19T13:03:16.547Z,19.13
2023-02-19T13:06:01.009Z,20.98
2023-02-19T13:08:34.276Z,20.38
2023-02-19T13:11:05.477Z,20.42
2023-02-19T13:13:38.449Z,20.08
2023-02-19T13:16:14.219Z,27.98
2023-02-19T13:18:47.406Z,21.40
2023-02-19T13:21:38.478Z,21.95
2023-02-19T13:24:08.913Z,28.67
2023-02-19T13:26:46.380Z,24.95
2023-02-19T13:29:13.462Z,24.25
2023-02-19T13:31:59.238Z,31.60
2023-02-19T13:34:45.026Z,24.00
2023-02-19T13:37:12.337Z,21.52
2023-02-19T13:39:46.565Z,24.13
2023-02-19T13:42:23.961Z,21.92
2023-02-19T13:44:55.156Z,26.27
2023-02-19T13:47:42.174Z,24.80
2023-02-19T13:50:19.006Z,28.02
2023-02-19T13:52:46.170Z,23.38
2023-02-19T13:55:32.084Z,27.00
2023-02-19T13:58:18.032Z,27.05
2023-02-19T14:00:52.475Z,20.83
2023-02-19T14:03:41.740Z,18.70
2023-02-19T14:06:10.104Z,16.02
2023-02-19T14:08:47.925Z,23.52
2023-02-19T14:11:16.108Z,20.95
2023-02-19T14:13:52.614Z,20.67
2023-02-19T14:16:28.982Z,20.27
2023-02-19T14:18:56.421Z,24.00
2023-02-19T14:21:28.189Z,26.30
2023-02-19T14:24:00.189Z,34.75
2023-02-19T14:26:28.115Z,24.23
2023-02-19T14:28:55.835Z,16.65
2023-02-19T14:31:34.030Z,35.90
2023-02-19T14:34:03.339Z,29.88
2023-02-19T14:36:33.387Z,22.40
2023-02-19T14:39:06.563Z,25.05
2023-02-19T14:41:34.819Z,21.88
2023-02-19T14:44:02.843Z,32.40
2023-02-19T14:46:35.592Z,33.63
2023-02-19T14:49:08.084Z,16.98
2023-02-19T14:51:40.925Z,19.17
2023-02-19T14:54:15.868Z,12.50
2023-02-19T14:56:45.040Z,15.30
2023-02-19T14:59:12.113Z,15.00
2023-02-19T15:01:39.792Z,17.85
2023-02-19T15:04:07.653Z,16.33
2023-02-19T15:06:36.036Z,23.23
2023-02-19T15:09:07.366Z,19.65
2023-02-19T15:11:35.711Z,19.30
2023-02-19T15:14:04.307Z,17.08
2023-02-19T15:16:32.497Z,18.67
2023-02-19T15:19:01.099Z,20.83
2023-02-19T15:21:30.076Z,23.02
2023-02-19T15:23:58.954Z,17.52
2023-02-19T15:26:33.827Z,23.05
2023-02-19T15:29:02.261Z,18.48
2023-02-19T15:31:29.706Z,16.65
2023-02-19T15:33:56.969Z,17.20
2023-02-19T15:36:31.924Z,20.77
2023-02-19T15:39:01.909Z,20.15
2023-02-19T15:41:33.420Z,22.42
2023-02-19T15:44:00.845Z,17.67
2023-02-19T15:46:28.262Z,19.42
2023-02-19T15:49:09.272Z,23.02
2023-02-19T15:51:48.452Z,20.30
2023-02-19T15:54:35.949Z,18.13
2023-02-19T15:57:07.858Z,21.92
2023-02-19T15:59:43.604Z,18.35
2023-02-19T16:02:15.507Z,23.85
2023-02-19T16:04:43.880Z,19.33
2023-02-19T16:07:27.702Z,20.33
2023-02-19T16:10:16.833Z,16.80
2023-02-19T16:12:45.464Z,20.98
2023-02-19T16:15:13.687Z,21.95
2023-02-19T16:17:43.439Z,19.92
2023-02-19T16:20:21.627Z,20.40
2023-02-19T16:22:49.106Z,19.23
2023-02-19T16:25:45.620Z,20.63
2023-02-19T16:28:14.578Z,19.15
2023-02-19T16:30:42.370Z,26.05
2023-02-19T16:33:28.469Z,24.67
2023-02-19T16:35:55.977Z,24.85
2023-02-19T16:38:23.169Z,25.10
2023-02-19T16:40:54.434Z,28.05
2023-02-19T16:43:26.326Z,24.58
2023-02-19T16:45:54.306Z,27.02
2023-02-19T16:48:22.652Z,27.38
2023-02-19T16:50:50.289Z,26.70
2023-02-19T16:53:19.876Z,25.90
2023-02-19T16:55:49.748Z,29.45
2023-02-19T16:58:16.958Z,35.22
2023-02-19T17:00:44.859Z,33.42
2023-02-19T17:03:14.393Z,32.67
2023-02-19T17:05:41.824Z,28.20
2023-02-19T17:08:24.349Z,28.65
2023-02-19T17:10:55.876Z,29.10
2023-02-19T17:13:23.362Z,23.77
2023-02-19T17:15:50.792Z,21.67
2023-02-19T17:18:18.206Z,27.65
2023-02-19T17:20:49.108Z,28.10
2023-02-19T17:23:16.227Z,23.58
2023-02-19T17:25:43.627Z,26.67
2023-02-19T17:28:10.752Z,27.35
2023-02-19T17:30:39.958Z,24.70
2023-02-19T17:33:07.524Z,22.87
2023-02-19T17:35:35.070Z,25.80
2023-02-19T17:38:09.366Z,26.27
2023-02-19T17:40:37.504Z,25.42
2023-02-19T17:43:06.290Z,27.35
2023-02-19T17:45:35.885Z,26.73
2023-02-19T17:48:03.086Z,25.88
2023-02-19T17:50:31.630Z,24.73
2023-02-19T17:52:59.050Z,27.00
2023-02-19T17:55:26.418Z,22.15
2023-02-19T17:57:54.016Z,27.17
2023-02-19T18:00:32.320Z,22.90
2023-02-19T18:02:59.492Z,27.63
2023-02-19T18:05:26.647Z,22.98
2023-02-19T18:07:54.167Z,24.65
2023-02-19T18:10:24.051Z,31.95
2023-02-19T18:12:51.283Z,39.90
2023-02-19T18:15:20.034Z,30.50
2023-02-19T18:17:47.238Z,21.98
2023-02-19T18:20:18.820Z,50.58
2023-02-19T18:22:46.155Z,42.40
2023-02-19T18:25:15.829Z,89.53
2023-02-19T18:27:42.969Z,59.17
2023-02-19T18:30:10.509Z,128.00
2023-02-19T18:32:38.035Z,145.48
2023-02-19T18:35:05.700Z,56.35
2023-02-19T18:37:33.879Z,37.47
2023-02-19T18:40:03.722Z,40.40
2023-02-19T18:42:30.984Z,135.10
2023-02-19T18:44:58.069Z,164.55
2023-02-19T18:47:25.726Z,76.78
2023-02-19T18:49:54.087Z,100.32
2023-02-19T18:52:22.010Z,59.50
2023-02-19T18:54:53.977Z,59.85
2023-02-19T18:57:22.438Z,39.60
2023-02-19T18:59:49.977Z,37.05
2023-02-19T19:02:17.382Z,35.83
2023-02-19T19:04:51.205Z,29.50
2023-02-19T19:07:18.875Z,30.40
2023-02-19T19:09:46.440Z,28.05
2023-02-19T19:12:13.951Z,26.33
2023-02-19T19:14:41.454Z,23.25
2023-02-19T19:17:08.925Z,24.80
2023-02-19T19:19:36.354Z,25.23
2023-02-19T19:22:04.424Z,25.20
2023-02-19T19:24:31.789Z,23.92
2023-02-19T19:26:59.322Z,26.88
2023-02-19T19:29:31.614Z,31.80
2023-02-19T19:31:59.098Z,26.17
2023-02-19T19:34:26.286Z,24.55
2023-02-19T19:36:53.447Z,22.17
2023-02-19T19:39:20.583Z,24.45
2023-02-19T19:41:47.793Z,23.33
2023-02-19T19:44:14.936Z,28.25
2023-02-19T19:46:46.699Z,26.58
2023-02-19T19:49:20.548Z,28.65
2023-02-19T19:51:48.135Z,28.10
2023-02-19T19:54:15.905Z,23.08
2023-02-19T19:56:44.418Z,26.83
2023-02-19T19:59:15.346Z,26.17
2023-02-19T20:01:50.100Z,25.30
2023-02-19T20:04:18.588Z,27.08
2023-02-19T20:06:45.701Z,28.98
2023-02-19T20:09:14.307Z,24.75
2023-02-19T20:11:45.624Z,23.13
2023-02-19T20:14:12.833Z,27.40
2023-02-19T20:16:39.941Z,28.77
2023-02-19T20:19:07.497Z,23.98
2023-02-19T20:21:34.800Z,25.67
2023-02-19T20:24:01.937Z,28.45
2023-02-19T20:26:31.089Z,30.50
2023-02-19T20:28:59.607Z,26.88
2023-02-19T20:31:27.064Z,26.08
2023-02-19T20:33:54.285Z,28.58
2023-02-19T20:36:21.538Z,27.45
2023-02-19T20:38:50.210Z,29.10
2023-02-19T20:41:17.506Z,29.95
2023-02-19T20:43:44.872Z,29.50
2023-02-19T20:46:12.513Z,27.15
2023-02-19T20:48:39.842Z,24.55
2023-02-19T20:51:07.467Z,24.08
2023-02-19T20:53:37.234Z,24.70
2023-02-19T20:56:06.127Z,29.13
2023-02-19T20:58:33.246Z,26.92
2023-02-19T21:01:00.485Z,32.92
2023-02-19T21:03:27.591Z,32.72
2023-02-19T21:05:54.683Z,27.92
2023-02-19T21:08:21.848Z,26.90
2023-02-19T21:10:48.930Z,28.48
2023-02-19T21:13:16.031Z,28.02
2023-02-19T21:15:43.488Z,21.48
2023-02-19T21:18:10.879Z,26.17
2023-02-19T21:20:37.967Z,22.38
2023-02-19T21:23:05.389Z,26.75
2023-02-19T21:25:33.208Z,25.73
2023-02-19T21:28:00.561Z,26.48
2023-02-19T21:30:27.904Z,25.42
2023-02-19T21:32:56.523Z,24.27
2023-02-19T21:35:23.636Z,23.48
2023-02-19T21:37:50.979Z,28.17
2023-02-19T21:40:18.303Z,25.25
2023-02-19T21:42:45.589Z,20.80
2023-02-19T21:45:12.885Z,27.52
2023-02-19T21:47:40.120Z,25.58
2023-02-19T21:50:07.702Z,26.80
2023-02-19T21:52:36.290Z,22.67
2023-02-19T21:55:06.450Z,31.55
2023-02-19T21:57:33.768Z,29.15
2023-02-19T22:00:00.983Z,25.73
2023-02-19T22:02:28.143Z,27.73
2023-02-19T22:04:55.557Z,28.10
2023-02-19T22:07:23.105Z,23.80
2023-02-19T22:09:50.836Z,30.38
2023-02-19T22:12:18.749Z,29.30
2023-02-19T22:14:46.132Z,31.05
2023-02-19T22:17:13.612Z,28.58
2023-02-19T22:19:41.599Z,22.75
2023-02-19T22:22:08.735Z,28.33
2023-02-19T22:24:35.947Z,25.15
2023-02-19T22:27:03.120Z,26.35
2023-02-19T22:29:30.340Z,28.45
2023-02-19T22:31:57.851Z,23.77
2023-02-19T22:34:25.088Z,25.00
2023-02-19T22:36:52.494Z,26.77
2023-02-19T22:39:24.552Z,28.52
2023-02-19T22:41:51.720Z,28.70
2023-02-19T22:44:19.246Z,24.23
2023-02-19T22:46:50.355Z,26.45
2023-02-19T22:49:17.869Z,24.60
2023-02-19T22:51:52.832Z,25.08
2023-02-19T22:54:24.930Z,23.83
2023-02-19T22:56:53.152Z,24.58
2023-02-19T22:59:20.299Z,22.88
2023-02-19T23:01:48.234Z,25.83
2023-02-19T23:04:15.421Z,26.60
2023-02-19T23:06:45.769Z,24.77
2023-02-19T23:09:23.088Z,20.85
2023-02-19T23:11:51.953Z,25.75
2023-02-19T23:14:21.755Z,24.02
2023-02-19T23:16:49.011Z,31.10
2023-02-19T23:19:16.640Z,28.00
2023-02-19T23:21:44.860Z,28.80
2023-02-19T23:24:12.829Z,24.58
2023-02-19T23:26:47.014Z,25.08
2023-02-19T23:29:21.548Z,26.42
2023-02-19T23:31:48.825Z,24.75
2023-02-19T23:34:16.402Z,24.30
2023-02-19T23:36:44.235Z,20.75
2023-02-19T23:39:12.350Z,26.17
2023-02-19T23:41:39.659Z,26.00
2023-02-19T23:44:07.095Z,22.20
2023-02-19T23:46:34.217Z,24.00
2023-02-19T23:49:01.390Z,24.52
2023-02-19T23:51:28.575Z,24.75
2023-02-19T23:53:55.749Z,25.10
2023-02-19T23:56:23.910Z,22.52
2023-02-19T23:58:51.116Z,27.42
